X  Sluiten METAR luchtvaart weer gegevens      EHGG Eelde Airport
Temperatuur
24°C Temperatuur
18°C Dauwpunt
69% Vochtigheid



Wind
16 KM/U
10 MPH
4 M/S
9 KTS



290°
WNW
Huidig weer

Helder Helder
Luchtdruk 1012.92 (hPa) - 29.91 (inHg)
Zicht 6.2 (mijl) - 10 (km)
Vliegveld
Vliegveld code EHGG

Locatie : Eelde Airport
Afstand: 50 (km)

Metar:
EHGG 191355Z AUTO 29009KT 250V320 9999 NSC 24/18 Q1013 TEMPO 6000 SHRA SCT015CB

Tijd: 19-08-2022 15:55 CEST